sensor_id;sensor_type;location;lat;lon;timestamp;P1;durP1;ratioP1;P2;durP2;ratioP2
17038;SDS011;8636;55.750;13.202;2023-06-01T00:00:25;9.47;;;3.33;;
17038;SDS011;8636;55.750;13.202;2023-06-01T00:02:54;11.33;;;3.40;;
17038;SDS011;8636;55.750;13.202;2023-06-01T00:05:29;11.53;;;3.17;;
17038;SDS011;8636;55.750;13.202;2023-06-01T00:07:57;11.00;;;3.73;;
17038;SDS011;8636;55.750;13.202;2023-06-01T00:10:25;10.60;;;3.77;;
17038;SDS011;8636;55.750;13.202;2023-06-01T00:13:00;9.93;;;3.80;;
17038;SDS011;8636;55.750;13.202;2023-06-01T00:15:28;9.27;;;3.17;;
17038;SDS011;8636;55.750;13.202;2023-06-01T00:17:57;9.90;;;3.33;;
17038;SDS011;8636;55.750;13.202;2023-06-01T00:20:34;9.90;;;3.23;;
17038;SDS011;8636;55.750;13.202;2023-06-01T00:23:02;10.80;;;3.67;;
17038;SDS011;8636;55.750;13.202;2023-06-01T00:25:30;13.87;;;4.07;;
17038;SDS011;8636;55.750;13.202;2023-06-01T00:28:05;10.67;;;3.27;;
17038;SDS011;8636;55.750;13.202;2023-06-01T00:30:32;12.93;;;3.90;;
17038;SDS011;8636;55.750;13.202;2023-06-01T00:33:02;14.23;;;4.13;;
17038;SDS011;8636;55.750;13.202;2023-06-01T00:35:37;9.57;;;3.43;;
17038;SDS011;8636;55.750;13.202;2023-06-01T00:38:04;12.63;;;3.60;;
17038;SDS011;8636;55.750;13.202;2023-06-01T00:40:33;12.33;;;4.07;;
17038;SDS011;8636;55.750;13.202;2023-06-01T00:43:08;13.87;;;3.40;;
17038;SDS011;8636;55.750;13.202;2023-06-01T00:45:35;12.37;;;3.90;;
17038;SDS011;8636;55.750;13.202;2023-06-01T00:48:05;13.83;;;4.07;;
17038;SDS011;8636;55.750;13.202;2023-06-01T00:50:40;12.00;;;4.37;;
17038;SDS011;8636;55.750;13.202;2023-06-01T00:53:17;14.80;;;3.90;;
17038;SDS011;8636;55.750;13.202;2023-06-01T00:55:53;14.13;;;4.87;;
17038;SDS011;8636;55.750;13.202;2023-06-01T00:58:21;17.10;;;4.83;;
17038;SDS011;8636;55.750;13.202;2023-06-01T01:00:48;14.97;;;4.07;;
17038;SDS011;8636;55.750;13.202;2023-06-01T01:03:29;20.10;;;4.53;;
17038;SDS011;8636;55.750;13.202;2023-06-01T01:06:01;11.37;;;3.83;;
17038;SDS011;8636;55.750;13.202;2023-06-01T01:08:46;13.20;;;4.60;;
17038;SDS011;8636;55.750;13.202;2023-06-01T01:11:23;19.20;;;4.33;;
17038;SDS011;8636;55.750;13.202;2023-06-01T01:14:04;12.07;;;4.13;;
17038;SDS011;8636;55.750;13.202;2023-06-01T01:16:39;14.50;;;4.33;;
17038;SDS011;8636;55.750;13.202;2023-06-01T01:19:33;15.70;;;4.53;;
17038;SDS011;8636;55.750;13.202;2023-06-01T01:22:13;15.37;;;3.80;;
17038;SDS011;8636;55.750;13.202;2023-06-01T01:25:03;15.53;;;4.27;;
17038;SDS011;8636;55.750;13.202;2023-06-01T01:27:45;12.83;;;3.63;;
17038;SDS011;8636;55.750;13.202;2023-06-01T01:30:33;12.93;;;4.63;;
17038;SDS011;8636;55.750;13.202;2023-06-01T01:33:04;14.23;;;3.90;;
17038;SDS011;8636;55.750;13.202;2023-06-01T01:35:40;14.00;;;4.10;;
17038;SDS011;8636;55.750;13.202;2023-06-01T01:38:09;18.53;;;4.70;;
17038;SDS011;8636;55.750;13.202;2023-06-01T01:40:37;16.67;;;3.90;;
17038;SDS011;8636;55.750;13.202;2023-06-01T01:43:12;16.37;;;4.67;;
17038;SDS011;8636;55.750;13.202;2023-06-01T01:45:41;16.73;;;5.00;;
17038;SDS011;8636;55.750;13.202;2023-06-01T01:48:10;18.43;;;4.47;;
17038;SDS011;8636;55.750;13.202;2023-06-01T01:50:53;16.83;;;4.43;;
17038;SDS011;8636;55.750;13.202;2023-06-01T01:53:38;13.90;;;3.87;;
17038;SDS011;8636;55.750;13.202;2023-06-01T01:56:14;14.33;;;4.37;;
17038;SDS011;8636;55.750;13.202;2023-06-01T01:58:43;14.40;;;4.50;;
17038;SDS011;8636;55.750;13.202;2023-06-01T02:01:13;10.43;;;5.10;;
17038;SDS011;8636;55.750;13.202;2023-06-01T02:03:57;13.60;;;4.30;;
17038;SDS011;8636;55.750;13.202;2023-06-01T02:06:26;22.37;;;5.53;;
17038;SDS011;8636;55.750;13.202;2023-06-01T02:09:01;17.77;;;5.60;;
17038;SDS011;8636;55.750;13.202;2023-06-01T02:11:32;16.27;;;5.13;;
17038;SDS011;8636;55.750;13.202;2023-06-01T02:14:00;15.93;;;4.67;;
17038;SDS011;8636;55.750;13.202;2023-06-01T02:16:39;16.30;;;5.10;;
17038;SDS011;8636;55.750;13.202;2023-06-01T02:19:07;17.03;;;5.13;;
17038;SDS011;8636;55.750;13.202;2023-06-01T02:21:37;17.90;;;5.43;;
17038;SDS011;8636;55.750;13.202;2023-06-01T02:24:12;17.20;;;5.47;;
17038;SDS011;8636;55.750;13.202;2023-06-01T02:26:40;21.20;;;5.93;;
17038;SDS011;8636;55.750;13.202;2023-06-01T02:29:09;15.57;;;5.50;;
17038;SDS011;8636;55.750;13.202;2023-06-01T02:31:45;11.30;;;4.17;;
17038;SDS011;8636;55.750;13.202;2023-06-01T02:34:13;18.47;;;5.93;;
17038;SDS011;8636;55.750;13.202;2023-06-01T02:36:41;17.53;;;5.00;;
17038;SDS011;8636;55.750;13.202;2023-06-01T02:39:16;16.80;;;6.10;;
17038;SDS011;8636;55.750;13.202;2023-06-01T02:41:44;20.60;;;5.60;;
17038;SDS011;8636;55.750;13.202;2023-06-01T02:44:12;18.07;;;5.77;;
17038;SDS011;8636;55.750;13.202;2023-06-01T02:46:48;15.57;;;5.13;;
17038;SDS011;8636;55.750;13.202;2023-06-01T02:49:16;21.57;;;6.40;;
17038;SDS011;8636;55.750;13.202;2023-06-01T02:51:44;14.93;;;5.70;;
17038;SDS011;8636;55.750;13.202;2023-06-01T02:54:19;16.87;;;6.17;;
17038;SDS011;8636;55.750;13.202;2023-06-01T02:56:47;21.03;;;6.63;;
17038;SDS011;8636;55.750;13.202;2023-06-01T02:59:14;20.37;;;7.77;;
17038;SDS011;8636;55.750;13.202;2023-06-01T03:01:50;15.43;;;6.47;;
17038;SDS011;8636;55.750;13.202;2023-06-01T03:04:18;22.37;;;6.67;;
17038;SDS011;8636;55.750;13.202;2023-06-01T03:06:46;16.70;;;6.30;;
17038;SDS011;8636;55.750;13.202;2023-06-01T03:09:22;17.00;;;6.63;;
17038;SDS011;8636;55.750;13.202;2023-06-01T03:11:50;10.90;;;5.77;;
17038;SDS011;8636;55.750;13.202;2023-06-01T03:14:18;20.77;;;7.03;;
17038;SDS011;8636;55.750;13.202;2023-06-01T03:16:54;16.53;;;6.30;;
17038;SDS011;8636;55.750;13.202;2023-06-01T03:19:22;15.90;;;7.00;;
17038;SDS011;8636;55.750;13.202;2023-06-01T03:21:50;15.67;;;6.17;;
17038;SDS011;8636;55.750;13.202;2023-06-01T03:24:25;18.67;;;6.67;;
17038;SDS011;8636;55.750;13.202;2023-06-01T03:26:55;14.47;;;6.90;;
17038;SDS011;8636;55.750;13.202;2023-06-01T03:29:23;15.97;;;6.43;;
17038;SDS011;8636;55.750;13.202;2023-06-01T03:31:59;17.50;;;6.20;;
17038;SDS011;8636;55.750;13.202;2023-06-01T03:34:27;15.37;;;6.00;;
17038;SDS011;8636;55.750;13.202;2023-06-01T03:36:55;13.50;;;6.03;;
17038;SDS011;8636;55.750;13.202;2023-06-01T03:39:30;20.77;;;7.30;;
17038;SDS011;8636;55.750;13.202;2023-06-01T03:41:59;22.90;;;7.37;;
17038;SDS011;8636;55.750;13.202;2023-06-01T03:44:27;21.07;;;7.23;;
17038;SDS011;8636;55.750;13.202;2023-06-01T03:47:03;19.20;;;7.23;;
17038;SDS011;8636;55.750;13.202;2023-06-01T03:49:31;15.97;;;7.67;;
17038;SDS011;8636;55.750;13.202;2023-06-01T03:51:59;19.17;;;6.77;;
17038;SDS011;8636;55.750;13.202;2023-06-01T03:54:40;16.97;;;6.57;;
17038;SDS011;8636;55.750;13.202;2023-06-01T03:57:08;20.57;;;7.13;;
17038;SDS011;8636;55.750;13.202;2023-06-01T03:59:36;16.33;;;6.00;;
17038;SDS011;8636;55.750;13.202;2023-06-01T04:02:12;18.57;;;6.73;;
17038;SDS011;8636;55.750;13.202;2023-06-01T04:04:43;14.63;;;5.90;;
17038;SDS011;8636;55.750;13.202;2023-06-01T04:07:21;19.17;;;6.80;;
17038;SDS011;8636;55.750;13.202;2023-06-01T04:09:49;13.97;;;6.57;;
17038;SDS011;8636;55.750;13.202;2023-06-01T04:12:17;20.77;;;7.07;;
17038;SDS011;8636;55.750;13.202;2023-06-01T04:14:52;19.27;;;6.63;;
17038;SDS011;8636;55.750;13.202;2023-06-01T04:17:21;15.50;;;6.53;;
17038;SDS011;8636;55.750;13.202;2023-06-01T04:19:49;17.77;;;6.77;;
17038;SDS011;8636;55.750;13.202;2023-06-01T04:22:22;16.93;;;6.80;;
17038;SDS011;8636;55.750;13.202;2023-06-01T04:24:50;18.37;;;6.03;;
17038;SDS011;8636;55.750;13.202;2023-06-01T04:27:18;21.17;;;6.37;;
17038;SDS011;8636;55.750;13.202;2023-06-01T04:29:54;18.63;;;7.07;;
17038;SDS011;8636;55.750;13.202;2023-06-01T04:32:29;16.73;;;6.50;;
17038;SDS011;8636;55.750;13.202;2023-06-01T04:35:03;18.13;;;7.00;;
17038;SDS011;8636;55.750;13.202;2023-06-01T04:37:32;18.70;;;6.77;;
17038;SDS011;8636;55.750;13.202;2023-06-01T04:40:01;23.47;;;7.23;;
17038;SDS011;8636;55.750;13.202;2023-06-01T04:42:41;18.20;;;6.23;;
17038;SDS011;8636;55.750;13.202;2023-06-01T04:45:11;22.93;;;6.63;;
17038;SDS011;8636;55.750;13.202;2023-06-01T04:47:48;17.47;;;6.20;;
17038;SDS011;8636;55.750;13.202;2023-06-01T04:50:22;18.17;;;6.77;;
17038;SDS011;8636;55.750;13.202;2023-06-01T04:53:04;18.67;;;6.10;;
17038;SDS011;8636;55.750;13.202;2023-06-01T04:55:32;14.00;;;6.63;;
17038;SDS011;8636;55.750;13.202;2023-06-01T04:58:00;18.97;;;6.67;;
17038;SDS011;8636;55.750;13.202;2023-06-01T05:00:35;12.97;;;5.77;;
17038;SDS011;8636;55.750;13.202;2023-06-01T05:03:04;15.40;;;5.50;;
17038;SDS011;8636;55.750;13.202;2023-06-01T05:05:32;18.17;;;6.50;;
17038;SDS011;8636;55.750;13.202;2023-06-01T05:08:07;16.50;;;6.10;;
17038;SDS011;8636;55.750;13.202;2023-06-01T05:10:35;15.90;;;5.37;;
17038;SDS011;8636;55.750;13.202;2023-06-01T05:13:02;14.30;;;5.77;;
17038;SDS011;8636;55.750;13.202;2023-06-01T05:15:38;17.03;;;5.93;;
17038;SDS011;8636;55.750;13.202;2023-06-01T05:18:07;13.03;;;6.00;;
17038;SDS011;8636;55.750;13.202;2023-06-01T05:20:35;13.53;;;5.67;;
17038;SDS011;8636;55.750;13.202;2023-06-01T05:23:09;15.30;;;5.17;;
17038;SDS011;8636;55.750;13.202;2023-06-01T05:25:38;21.13;;;5.77;;
17038;SDS011;8636;55.750;13.202;2023-06-01T05:28:05;24.17;;;6.50;;
17038;SDS011;8636;55.750;13.202;2023-06-01T05:30:41;12.40;;;5.17;;
17038;SDS011;8636;55.750;13.202;2023-06-01T05:33:10;16.77;;;5.83;;
17038;SDS011;8636;55.750;13.202;2023-06-01T05:35:38;14.47;;;5.40;;
17038;SDS011;8636;55.750;13.202;2023-06-01T05:38:13;18.57;;;6.23;;
17038;SDS011;8636;55.750;13.202;2023-06-01T05:40:41;19.37;;;6.40;;
17038;SDS011;8636;55.750;13.202;2023-06-01T05:43:08;13.77;;;5.57;;
17038;SDS011;8636;55.750;13.202;2023-06-01T05:45:43;15.90;;;5.80;;
17038;SDS011;8636;55.750;13.202;2023-06-01T05:48:12;15.67;;;5.10;;
17038;SDS011;8636;55.750;13.202;2023-06-01T05:50:41;16.40;;;5.40;;
17038;SDS011;8636;55.750;13.202;2023-06-01T05:53:16;17.43;;;6.00;;
17038;SDS011;8636;55.750;13.202;2023-06-01T05:55:44;17.27;;;6.20;;
17038;SDS011;8636;55.750;13.202;2023-06-01T05:58:12;15.00;;;6.30;;
17038;SDS011;8636;55.750;13.202;2023-06-01T06:00:46;15.57;;;5.18;;
17038;SDS011;8636;55.750;13.202;2023-06-01T06:03:15;17.40;;;5.80;;
17038;SDS011;8636;55.750;13.202;2023-06-01T06:05:43;14.10;;;5.90;;
17038;SDS011;8636;55.750;13.202;2023-06-01T06:08:18;22.70;;;5.53;;
17038;SDS011;8636;55.750;13.202;2023-06-01T06:10:45;16.53;;;5.53;;
17038;SDS011;8636;55.750;13.202;2023-06-01T06:13:27;14.13;;;5.40;;
17038;SDS011;8636;55.750;13.202;2023-06-01T06:15:55;20.17;;;5.57;;
17038;SDS011;8636;55.750;13.202;2023-06-01T06:18:24;13.60;;;5.30;;
17038;SDS011;8636;55.750;13.202;2023-06-01T06:21:00;16.10;;;5.87;;
17038;SDS011;8636;55.750;13.202;2023-06-01T06:23:28;12.70;;;6.13;;
17038;SDS011;8636;55.750;13.202;2023-06-01T06:25:56;11.97;;;5.07;;
17038;SDS011;8636;55.750;13.202;2023-06-01T06:28:31;13.27;;;4.57;;
17038;SDS011;8636;55.750;13.202;2023-06-01T06:30:58;10.57;;;4.57;;
17038;SDS011;8636;55.750;13.202;2023-06-01T06:33:28;11.27;;;4.30;;
17038;SDS011;8636;55.750;13.202;2023-06-01T06:36:03;14.07;;;5.07;;
17038;SDS011;8636;55.750;13.202;2023-06-01T06:38:31;14.87;;;5.23;;
17038;SDS011;8636;55.750;13.202;2023-06-01T06:40:59;16.87;;;5.30;;
17038;SDS011;8636;55.750;13.202;2023-06-01T06:43:34;10.73;;;4.93;;
17038;SDS011;8636;55.750;13.202;2023-06-01T06:46:02;14.20;;;5.17;;
17038;SDS011;8636;55.750;13.202;2023-06-01T06:48:31;15.13;;;5.70;;
17038;SDS011;8636;55.750;13.202;2023-06-01T06:51:12;16.57;;;5.20;;
17038;SDS011;8636;55.750;13.202;2023-06-01T06:53:53;15.95;;;4.93;;
17038;SDS011;8636;55.750;13.202;2023-06-01T06:56:28;14.18;;;4.78;;
17038;SDS011;8636;55.750;13.202;2023-06-01T06:58:55;12.52;;;4.60;;
17038;SDS011;8636;55.750;13.202;2023-06-01T07:01:32;9.77;;;4.13;;
17038;SDS011;8636;55.750;13.202;2023-06-01T07:04:11;17.80;;;5.63;;
17038;SDS011;8636;55.750;13.202;2023-06-01T07:06:39;13.43;;;5.72;;
17038;SDS011;8636;55.750;13.202;2023-06-01T07:09:08;13.50;;;5.00;;
17038;SDS011;8636;55.750;13.202;2023-06-01T07:11:43;16.88;;;5.22;;
17038;SDS011;8636;55.750;13.202;2023-06-01T07:14:11;16.60;;;5.65;;
17038;SDS011;8636;55.750;13.202;2023-06-01T07:16:39;13.50;;;5.88;;
17038;SDS011;8636;55.750;13.202;2023-06-01T07:19:15;14.07;;;5.00;;
17038;SDS011;8636;55.750;13.202;2023-06-01T07:21:43;18.73;;;5.57;;
17038;SDS011;8636;55.750;13.202;2023-06-01T07:24:11;15.38;;;5.38;;
17038;SDS011;8636;55.750;13.202;2023-06-01T07:26:46;13.07;;;4.53;;
17038;SDS011;8636;55.750;13.202;2023-06-01T07:29:17;11.88;;;4.97;;
17038;SDS011;8636;55.750;13.202;2023-06-01T07:31:45;16.55;;;5.30;;
17038;SDS011;8636;55.750;13.202;2023-06-01T07:34:21;13.32;;;4.32;;
17038;SDS011;8636;55.750;13.202;2023-06-01T07:36:51;16.20;;;5.13;;
17038;SDS011;8636;55.750;13.202;2023-06-01T07:39:30;17.52;;;5.03;;
17038;SDS011;8636;55.750;13.202;2023-06-01T07:42:05;15.55;;;4.88;;
17038;SDS011;8636;55.750;13.202;2023-06-01T07:44:33;18.73;;;4.72;;
17038;SDS011;8636;55.750;13.202;2023-06-01T07:47:01;13.15;;;4.90;;
17038;SDS011;8636;55.750;13.202;2023-06-01T07:49:37;10.07;;;3.88;;
17038;SDS011;8636;55.750;13.202;2023-06-01T07:52:11;13.45;;;4.63;;
17038;SDS011;8636;55.750;13.202;2023-06-01T07:54:47;16.25;;;4.82;;
17038;SDS011;8636;55.750;13.202;2023-06-01T07:57:15;15.40;;;4.78;;
17038;SDS011;8636;55.750;13.202;2023-06-01T07:59:43;17.33;;;4.85;;
17038;SDS011;8636;55.750;13.202;2023-06-01T08:02:18;14.63;;;5.07;;
17038;SDS011;8636;55.750;13.202;2023-06-01T08:04:48;10.98;;;3.90;;
17038;SDS011;8636;55.750;13.202;2023-06-01T08:07:17;13.15;;;3.92;;
17038;SDS011;8636;55.750;13.202;2023-06-01T08:09:52;13.52;;;4.82;;
17038;SDS011;8636;55.750;13.202;2023-06-01T08:12:19;15.50;;;4.82;;
17038;SDS011;8636;55.750;13.202;2023-06-01T08:14:48;15.35;;;4.20;;
17038;SDS011;8636;55.750;13.202;2023-06-01T08:17:24;9.45;;;3.88;;
17038;SDS011;8636;55.750;13.202;2023-06-01T08:19:53;12.30;;;4.32;;
17038;SDS011;8636;55.750;13.202;2023-06-01T08:22:23;16.10;;;5.65;;
17038;SDS011;8636;55.750;13.202;2023-06-01T08:24:58;12.95;;;4.82;;
17038;SDS011;8636;55.750;13.202;2023-06-01T08:27:25;15.10;;;4.25;;
17038;SDS011;8636;55.750;13.202;2023-06-01T08:29:54;13.13;;;4.25;;
17038;SDS011;8636;55.750;13.202;2023-06-01T08:32:29;16.65;;;4.00;;
17038;SDS011;8636;55.750;13.202;2023-06-01T08:34:58;11.85;;;4.05;;
17038;SDS011;8636;55.750;13.202;2023-06-01T08:37:26;12.95;;;4.65;;
17038;SDS011;8636;55.750;13.202;2023-06-01T08:40:02;12.73;;;4.10;;
17038;SDS011;8636;55.750;13.202;2023-06-01T08:42:36;12.65;;;3.78;;
17038;SDS011;8636;55.750;13.202;2023-06-01T08:45:15;12.85;;;4.22;;
17038;SDS011;8636;55.750;13.202;2023-06-01T08:47:43;11.13;;;4.15;;
17038;SDS011;8636;55.750;13.202;2023-06-01T08:50:14;10.35;;;3.80;;
17038;SDS011;8636;55.750;13.202;2023-06-01T08:52:50;10.85;;;3.78;;
17038;SDS011;8636;55.750;13.202;2023-06-01T08:55:27;12.02;;;4.53;;
17038;SDS011;8636;55.750;13.202;2023-06-01T08:58:02;13.55;;;4.28;;
17038;SDS011;8636;55.750;13.202;2023-06-01T09:00:31;12.43;;;3.95;;
17038;SDS011;8636;55.750;13.202;2023-06-01T09:02:59;15.18;;;3.67;;
17038;SDS011;8636;55.750;13.202;2023-06-01T09:05:36;14.73;;;4.07;;
17038;SDS011;8636;55.750;13.202;2023-06-01T09:08:04;11.75;;;3.83;;
17038;SDS011;8636;55.750;13.202;2023-06-01T09:10:35;13.35;;;3.70;;
17038;SDS011;8636;55.750;13.202;2023-06-01T09:13:11;11.80;;;4.07;;
17038;SDS011;8636;55.750;13.202;2023-06-01T09:15:49;12.75;;;4.40;;
17038;SDS011;8636;55.750;13.202;2023-06-01T09:18:25;11.68;;;3.50;;
17038;SDS011;8636;55.750;13.202;2023-06-01T09:20:54;12.00;;;3.53;;
17038;SDS011;8636;55.750;13.202;2023-06-01T09:23:43;8.52;;;3.10;;
17038;SDS011;8636;55.750;13.202;2023-06-01T09:26:11;15.43;;;4.32;;
17038;SDS011;8636;55.750;13.202;2023-06-01T09:28:53;11.15;;;3.92;;
17038;SDS011;8636;55.750;13.202;2023-06-01T09:31:35;12.30;;;4.30;;
17038;SDS011;8636;55.750;13.202;2023-06-01T09:34:08;13.50;;;3.40;;
17038;SDS011;8636;55.750;13.202;2023-06-01T09:36:46;8.63;;;3.00;;
17038;SDS011;8636;55.750;13.202;2023-06-01T09:39:16;10.27;;;3.15;;
17038;SDS011;8636;55.750;13.202;2023-06-01T09:41:53;9.35;;;2.83;;
17038;SDS011;8636;55.750;13.202;2023-06-01T09:44:23;8.25;;;2.95;;
17038;SDS011;8636;55.750;13.202;2023-06-01T09:46:59;9.20;;;3.05;;
17038;SDS011;8636;55.750;13.202;2023-06-01T09:49:29;7.85;;;2.95;;
17038;SDS011;8636;55.750;13.202;2023-06-01T09:52:10;9.82;;;2.92;;
17038;SDS011;8636;55.750;13.202;2023-06-01T09:54:49;8.10;;;2.55;;
17038;SDS011;8636;55.750;13.202;2023-06-01T09:57:22;12.55;;;3.38;;
17038;SDS011;8636;55.750;13.202;2023-06-01T09:59:58;8.70;;;3.08;;
17038;SDS011;8636;55.750;13.202;2023-06-01T10:02:29;11.50;;;3.20;;
17038;SDS011;8636;55.750;13.202;2023-06-01T10:04:58;9.55;;;2.60;;
17038;SDS011;8636;55.750;13.202;2023-06-01T10:07:35;9.95;;;3.08;;
17038;SDS011;8636;55.750;13.202;2023-06-01T10:10:05;11.25;;;2.90;;
17038;SDS011;8636;55.750;13.202;2023-06-01T10:12:41;10.57;;;2.75;;
17038;SDS011;8636;55.750;13.202;2023-06-01T10:15:11;10.18;;;3.13;;
17038;SDS011;8636;55.750;13.202;2023-06-01T10:17:56;8.05;;;3.15;;
17038;SDS011;8636;55.750;13.202;2023-06-01T10:20:32;12.90;;;3.83;;
17038;SDS011;8636;55.750;13.202;2023-06-01T10:23:02;8.05;;;2.50;;
17038;SDS011;8636;55.750;13.202;2023-06-01T10:25:39;8.75;;;2.90;;
17038;SDS011;8636;55.750;13.202;2023-06-01T10:28:17;9.98;;;3.30;;
17038;SDS011;8636;55.750;13.202;2023-06-01T10:30:46;9.32;;;3.28;;
17038;SDS011;8636;55.750;13.202;2023-06-01T10:34:00;6.63;;;2.45;;
17038;SDS011;8636;55.750;13.202;2023-06-01T10:39:40;11.20;;;2.60;;
17038;SDS011;8636;55.750;13.202;2023-06-01T10:48:07;7.63;;;2.35;;
17038;SDS011;8636;55.750;13.202;2023-06-01T10:51:15;6.80;;;2.50;;
17038;SDS011;8636;55.750;13.202;2023-06-01T11:02:54;5.22;;;2.08;;
17038;SDS011;8636;55.750;13.202;2023-06-01T11:05:33;6.35;;;1.85;;
17038;SDS011;8636;55.750;13.202;2023-06-01T11:14:35;10.27;;;2.17;;
17038;SDS011;8636;55.750;13.202;2023-06-01T11:20:00;7.63;;;2.20;;
17038;SDS011;8636;55.750;13.202;2023-06-01T11:22:35;7.13;;;2.25;;
17038;SDS011;8636;55.750;13.202;2023-06-01T11:25:11;7.40;;;2.10;;
17038;SDS011;8636;55.750;13.202;2023-06-01T11:27:44;7.80;;;2.10;;
17038;SDS011;8636;55.750;13.202;2023-06-01T11:30:20;5.78;;;1.90;;
17038;SDS011;8636;55.750;13.202;2023-06-01T11:32:49;5.65;;;1.77;;
17038;SDS011;8636;55.750;13.202;2023-06-01T11:35:27;8.73;;;2.22;;
17038;SDS011;8636;55.750;13.202;2023-06-01T11:37:55;7.00;;;1.80;;
17038;SDS011;8636;55.750;13.202;2023-06-01T11:40:23;8.13;;;2.30;;
17038;SDS011;8636;55.750;13.202;2023-06-01T11:43:04;7.25;;;2.15;;
17038;SDS011;8636;55.750;13.202;2023-06-01T11:45:34;10.25;;;2.20;;
17038;SDS011;8636;55.750;13.202;2023-06-01T11:48:10;10.75;;;2.33;;
17038;SDS011;8636;55.750;13.202;2023-06-01T11:50:45;6.05;;;1.92;;
17038;SDS011;8636;55.750;13.202;2023-06-01T11:53:28;6.63;;;2.40;;
17038;SDS011;8636;55.750;13.202;2023-06-01T11:55:58;8.18;;;2.20;;
17038;SDS011;8636;55.750;13.202;2023-06-01T11:58:35;7.93;;;1.98;;
17038;SDS011;8636;55.750;13.202;2023-06-01T12:01:11;7.35;;;2.13;;
17038;SDS011;8636;55.750;13.202;2023-06-01T12:03:46;8.93;;;2.40;;
17038;SDS011;8636;55.750;13.202;2023-06-01T12:06:18;4.38;;;1.85;;
17038;SDS011;8636;55.750;13.202;2023-06-01T12:08:54;12.18;;;2.22;;
17038;SDS011;8636;55.750;13.202;2023-06-01T12:11:25;4.35;;;1.58;;
17038;SDS011;8636;55.750;13.202;2023-06-01T12:14:01;10.88;;;2.42;;
17038;SDS011;8636;55.750;13.202;2023-06-01T12:19:28;6.97;;;1.90;;
17038;SDS011;8636;55.750;13.202;2023-06-01T12:21:58;4.25;;;1.75;;
17038;SDS011;8636;55.750;13.202;2023-06-01T12:24:26;6.05;;;2.00;;
17038;SDS011;8636;55.750;13.202;2023-06-01T12:27:02;7.80;;;2.15;;
17038;SDS011;8636;55.750;13.202;2023-06-01T12:29:40;10.25;;;1.92;;
17038;SDS011;8636;55.750;13.202;2023-06-01T12:32:18;7.28;;;1.70;;
17038;SDS011;8636;55.750;13.202;2023-06-01T12:37:36;10.73;;;2.55;;
17038;SDS011;8636;55.750;13.202;2023-06-01T12:40:04;5.22;;;2.40;;
17038;SDS011;8636;55.750;13.202;2023-06-01T12:42:33;12.73;;;2.22;;
17038;SDS011;8636;55.750;13.202;2023-06-01T12:45:11;11.90;;;2.60;;
17038;SDS011;8636;55.750;13.202;2023-06-01T12:47:41;5.35;;;1.85;;
17038;SDS011;8636;55.750;13.202;2023-06-01T12:50:16;8.27;;;2.05;;
17038;SDS011;8636;55.750;13.202;2023-06-01T12:52:44;5.65;;;1.88;;
17038;SDS011;8636;55.750;13.202;2023-06-01T12:55:25;7.72;;;2.20;;
17038;SDS011;8636;55.750;13.202;2023-06-01T12:57:53;8.65;;;2.60;;
17038;SDS011;8636;55.750;13.202;2023-06-01T13:00:22;6.70;;;2.20;;
17038;SDS011;8636;55.750;13.202;2023-06-01T13:03:18;9.45;;;2.30;;
17038;SDS011;8636;55.750;13.202;2023-06-01T13:05:46;5.93;;;2.10;;
17038;SDS011;8636;55.750;13.202;2023-06-01T13:08:23;6.38;;;2.08;;
17038;SDS011;8636;55.750;13.202;2023-06-01T13:10:50;7.47;;;1.90;;
17038;SDS011;8636;55.750;13.202;2023-06-01T13:13:19;4.68;;;1.92;;
17038;SDS011;8636;55.750;13.202;2023-06-01T13:15:54;7.50;;;2.10;;
17038;SDS011;8636;55.750;13.202;2023-06-01T13:18:23;7.63;;;2.17;;
17038;SDS011;8636;55.750;13.202;2023-06-01T13:20:52;8.80;;;2.13;;
17038;SDS011;8636;55.750;13.202;2023-06-01T13:23:27;8.23;;;2.38;;
17038;SDS011;8636;55.750;13.202;2023-06-01T13:25:55;5.45;;;2.10;;
17038;SDS011;8636;55.750;13.202;2023-06-01T13:28:22;6.95;;;1.92;;
17038;SDS011;8636;55.750;13.202;2023-06-01T13:30:57;3.65;;;1.90;;
17038;SDS011;8636;55.750;13.202;2023-06-01T13:33:26;4.88;;;1.77;;
17038;SDS011;8636;55.750;13.202;2023-06-01T13:35:54;4.18;;;1.73;;
17038;SDS011;8636;55.750;13.202;2023-06-01T13:38:30;3.75;;;2.17;;
17038;SDS011;8636;55.750;13.202;2023-06-01T13:40:58;7.70;;;2.53;;
17038;SDS011;8636;55.750;13.202;2023-06-01T13:43:26;5.00;;;1.80;;
17038;SDS011;8636;55.750;13.202;2023-06-01T13:46:01;3.53;;;1.58;;
17038;SDS011;8636;55.750;13.202;2023-06-01T13:48:32;3.97;;;1.77;;
17038;SDS011;8636;55.750;13.202;2023-06-01T13:51:00;4.00;;;1.92;;
17038;SDS011;8636;55.750;13.202;2023-06-01T13:53:41;8.70;;;2.25;;
17038;SDS011;8636;55.750;13.202;2023-06-01T13:56:09;3.65;;;1.83;;
17038;SDS011;8636;55.750;13.202;2023-06-01T13:58:44;4.07;;;1.58;;
17038;SDS011;8636;55.750;13.202;2023-06-01T14:01:12;3.25;;;1.60;;
17038;SDS011;8636;55.750;13.202;2023-06-01T14:03:41;6.45;;;2.00;;
17038;SDS011;8636;55.750;13.202;2023-06-01T14:06:16;3.33;;;1.83;;
17038;SDS011;8636;55.750;13.202;2023-06-01T14:08:44;5.28;;;1.88;;
17038;SDS011;8636;55.750;13.202;2023-06-01T14:11:12;2.45;;;1.52;;
17038;SDS011;8636;55.750;13.202;2023-06-01T14:13:47;3.00;;;1.30;;
17038;SDS011;8636;55.750;13.202;2023-06-01T14:16:15;2.20;;;1.33;;
17038;SDS011;8636;55.750;13.202;2023-06-01T14:18:44;4.68;;;1.65;;
17038;SDS011;8636;55.750;13.202;2023-06-01T14:21:19;4.30;;;1.52;;
17038;SDS011;8636;55.750;13.202;2023-06-01T14:23:47;2.22;;;1.52;;
17038;SDS011;8636;55.750;13.202;2023-06-01T14:26:15;4.40;;;1.67;;
17038;SDS011;8636;55.750;13.202;2023-06-01T14:28:50;4.82;;;1.77;;
17038;SDS011;8636;55.750;13.202;2023-06-01T14:31:18;4.82;;;1.52;;
17038;SDS011;8636;55.750;13.202;2023-06-01T14:33:47;3.05;;;1.35;;
17038;SDS011;8636;55.750;13.202;2023-06-01T14:36:22;5.05;;;1.63;;
17038;SDS011;8636;55.750;13.202;2023-06-01T14:39:10;5.30;;;1.67;;
17038;SDS011;8636;55.750;13.202;2023-06-01T14:41:45;5.55;;;1.60;;
17038;SDS011;8636;55.750;13.202;2023-06-01T14:44:13;3.60;;;1.52;;
17038;SDS011;8636;55.750;13.202;2023-06-01T14:46:40;6.18;;;1.52;;
17038;SDS011;8636;55.750;13.202;2023-06-01T14:49:16;8.02;;;1.50;;
17038;SDS011;8636;55.750;13.202;2023-06-01T14:51:45;3.35;;;1.30;;
17038;SDS011;8636;55.750;13.202;2023-06-01T14:54:33;3.10;;;1.45;;
17038;SDS011;8636;55.750;13.202;2023-06-01T14:57:04;4.18;;;1.50;;
17038;SDS011;8636;55.750;13.202;2023-06-01T14:59:40;3.13;;;1.50;;
17038;SDS011;8636;55.750;13.202;2023-06-01T15:02:20;2.53;;;1.33;;
17038;SDS011;8636;55.750;13.202;2023-06-01T15:04:55;3.95;;;1.67;;
17038;SDS011;8636;55.750;13.202;2023-06-01T15:07:23;5.93;;;1.70;;
17038;SDS011;8636;55.750;13.202;2023-06-01T15:09:51;2.33;;;1.20;;
17038;SDS011;8636;55.750;13.202;2023-06-01T15:12:26;2.70;;;1.40;;
17038;SDS011;8636;55.750;13.202;2023-06-01T15:14:54;3.25;;;1.10;;
17038;SDS011;8636;55.750;13.202;2023-06-01T15:17:22;6.38;;;1.45;;
17038;SDS011;8636;55.750;13.202;2023-06-01T15:19:58;3.75;;;1.45;;
17038;SDS011;8636;55.750;13.202;2023-06-01T15:22:26;2.95;;;1.50;;
17038;SDS011;8636;55.750;13.202;2023-06-01T15:24:54;4.40;;;1.50;;
17038;SDS011;8636;55.750;13.202;2023-06-01T15:27:29;6.35;;;1.95;;
17038;SDS011;8636;55.750;13.202;2023-06-01T15:29:57;3.90;;;1.42;;
17038;SDS011;8636;55.750;13.202;2023-06-01T15:32:25;3.95;;;1.35;;
17038;SDS011;8636;55.750;13.202;2023-06-01T15:35:00;4.32;;;2.15;;
17038;SDS011;8636;55.750;13.202;2023-06-01T15:37:31;3.38;;;1.60;;
17038;SDS011;8636;55.750;13.202;2023-06-01T15:39:58;5.00;;;1.77;;
17038;SDS011;8636;55.750;13.202;2023-06-01T15:42:33;4.03;;;2.15;;